sensor_id;sensor_type;location;lat;lon;timestamp;P1;durP1;ratioP1;P2;durP2;ratioP2
14776;SDS011;7480;43.124;25.686;2023-04-12T00:00:53;11.57;;;9.53;;
14776;SDS011;7480;43.124;25.686;2023-04-12T00:03:20;11.43;;;8.97;;
14776;SDS011;7480;43.124;25.686;2023-04-12T00:05:47;11.53;;;9.03;;
14776;SDS011;7480;43.124;25.686;2023-04-12T00:08:23;10.53;;;8.43;;
14776;SDS011;7480;43.124;25.686;2023-04-12T00:10:49;11.13;;;8.37;;
14776;SDS011;7480;43.124;25.686;2023-04-12T00:13:17;9.83;;;7.70;;
14776;SDS011;7480;43.124;25.686;2023-04-12T00:15:44;12.07;;;8.20;;
14776;SDS011;7480;43.124;25.686;2023-04-12T00:18:11;9.23;;;8.07;;
14776;SDS011;7480;43.124;25.686;2023-04-12T00:20:38;10.30;;;8.43;;
14776;SDS011;7480;43.124;25.686;2023-04-12T00:23:04;9.43;;;7.80;;
14776;SDS011;7480;43.124;25.686;2023-04-12T00:25:31;9.60;;;7.73;;
14776;SDS011;7480;43.124;25.686;2023-04-12T00:27:58;8.80;;;7.23;;
14776;SDS011;7480;43.124;25.686;2023-04-12T00:30:25;9.63;;;8.00;;
14776;SDS011;7480;43.124;25.686;2023-04-12T00:32:52;11.50;;;8.43;;
14776;SDS011;7480;43.124;25.686;2023-04-12T00:35:19;10.58;;;7.20;;
14776;SDS011;7480;43.124;25.686;2023-04-12T00:37:45;10.10;;;8.50;;
14776;SDS011;7480;43.124;25.686;2023-04-12T00:40:12;9.20;;;7.30;;
14776;SDS011;7480;43.124;25.686;2023-04-12T00:42:39;9.77;;;7.87;;
14776;SDS011;7480;43.124;25.686;2023-04-12T00:45:05;9.43;;;7.80;;
14776;SDS011;7480;43.124;25.686;2023-04-12T00:47:36;8.53;;;7.23;;
14776;SDS011;7480;43.124;25.686;2023-04-12T00:50:03;9.10;;;7.80;;
14776;SDS011;7480;43.124;25.686;2023-04-12T00:52:34;10.27;;;7.93;;
14776;SDS011;7480;43.124;25.686;2023-04-12T00:55:02;7.87;;;6.47;;
14776;SDS011;7480;43.124;25.686;2023-04-12T00:57:31;9.10;;;7.63;;
14776;SDS011;7480;43.124;25.686;2023-04-12T01:00:01;8.80;;;7.80;;
14776;SDS011;7480;43.124;25.686;2023-04-12T01:02:35;9.47;;;8.20;;
14776;SDS011;7480;43.124;25.686;2023-04-12T01:05:05;10.07;;;7.87;;
14776;SDS011;7480;43.124;25.686;2023-04-12T01:07:37;10.60;;;8.17;;
14776;SDS011;7480;43.124;25.686;2023-04-12T01:12:57;10.60;;;8.50;;
14776;SDS011;7480;43.124;25.686;2023-04-12T01:15:31;9.43;;;7.67;;
14776;SDS011;7480;43.124;25.686;2023-04-12T01:18:11;10.03;;;8.87;;
14776;SDS011;7480;43.124;25.686;2023-04-12T01:20:41;11.07;;;8.07;;
14776;SDS011;7480;43.124;25.686;2023-04-12T01:23:33;9.73;;;7.80;;
14776;SDS011;7480;43.124;25.686;2023-04-12T01:26:43;9.77;;;8.30;;
14776;SDS011;7480;43.124;25.686;2023-04-12T01:29:12;9.33;;;7.63;;
14776;SDS011;7480;43.124;25.686;2023-04-12T01:32:02;10.67;;;8.50;;
14776;SDS011;7480;43.124;25.686;2023-04-12T01:34:29;9.77;;;7.77;;
14776;SDS011;7480;43.124;25.686;2023-04-12T01:36:57;10.33;;;8.40;;
14776;SDS011;7480;43.124;25.686;2023-04-12T01:39:24;11.20;;;8.33;;
14776;SDS011;7480;43.124;25.686;2023-04-12T01:41:51;9.53;;;7.87;;
14776;SDS011;7480;43.124;25.686;2023-04-12T01:44:18;11.47;;;8.40;;
14776;SDS011;7480;43.124;25.686;2023-04-12T01:46:45;10.93;;;8.30;;
14776;SDS011;7480;43.124;25.686;2023-04-12T01:49:13;10.33;;;7.80;;
14776;SDS011;7480;43.124;25.686;2023-04-12T01:54:08;8.83;;;7.30;;
14776;SDS011;7480;43.124;25.686;2023-04-12T01:56:39;9.30;;;7.80;;
14776;SDS011;7480;43.124;25.686;2023-04-12T01:59:07;8.80;;;7.90;;
14776;SDS011;7480;43.124;25.686;2023-04-12T02:01:35;11.10;;;8.53;;
14776;SDS011;7480;43.124;25.686;2023-04-12T02:04:02;9.40;;;7.93;;
14776;SDS011;7480;43.124;25.686;2023-04-12T02:06:30;10.13;;;8.13;;
14776;SDS011;7480;43.124;25.686;2023-04-12T02:09:02;10.90;;;8.40;;
14776;SDS011;7480;43.124;25.686;2023-04-12T02:11:30;9.73;;;7.90;;
14776;SDS011;7480;43.124;25.686;2023-04-12T02:13:57;11.73;;;8.67;;
14776;SDS011;7480;43.124;25.686;2023-04-12T02:16:24;9.60;;;8.00;;
14776;SDS011;7480;43.124;25.686;2023-04-12T02:18:54;10.23;;;8.40;;
14776;SDS011;7480;43.124;25.686;2023-04-12T02:21:22;9.77;;;8.60;;
14776;SDS011;7480;43.124;25.686;2023-04-12T02:23:49;11.50;;;8.53;;
14776;SDS011;7480;43.124;25.686;2023-04-12T02:26:16;9.50;;;8.03;;
14776;SDS011;7480;43.124;25.686;2023-04-12T02:28:43;10.73;;;8.33;;
14776;SDS011;7480;43.124;25.686;2023-04-12T02:31:09;9.47;;;7.27;;
14776;SDS011;7480;43.124;25.686;2023-04-12T02:33:37;8.93;;;7.30;;
14776;SDS011;7480;43.124;25.686;2023-04-12T02:36:04;9.10;;;7.37;;
14776;SDS011;7480;43.124;25.686;2023-04-12T02:38:35;8.77;;;7.63;;
14776;SDS011;7480;43.124;25.686;2023-04-12T02:41:02;10.87;;;8.33;;
14776;SDS011;7480;43.124;25.686;2023-04-12T02:43:28;8.80;;;7.47;;
14776;SDS011;7480;43.124;25.686;2023-04-12T02:45:55;9.87;;;8.13;;
14776;SDS011;7480;43.124;25.686;2023-04-12T02:48:21;8.67;;;7.17;;
14776;SDS011;7480;43.124;25.686;2023-04-12T02:50:48;11.67;;;7.97;;
14776;SDS011;7480;43.124;25.686;2023-04-12T02:53:15;10.27;;;7.90;;
14776;SDS011;7480;43.124;25.686;2023-04-12T02:55:42;9.13;;;7.73;;
14776;SDS011;7480;43.124;25.686;2023-04-12T02:58:08;8.07;;;7.00;;
14776;SDS011;7480;43.124;25.686;2023-04-12T03:00:35;8.37;;;7.43;;
14776;SDS011;7480;43.124;25.686;2023-04-12T03:03:01;10.43;;;7.57;;
14776;SDS011;7480;43.124;25.686;2023-04-12T03:05:29;10.50;;;7.50;;
14776;SDS011;7480;43.124;25.686;2023-04-12T03:07:55;9.20;;;7.37;;
14776;SDS011;7480;43.124;25.686;2023-04-12T03:10:22;8.60;;;6.80;;
14776;SDS011;7480;43.124;25.686;2023-04-12T03:12:49;8.63;;;7.33;;
14776;SDS011;7480;43.124;25.686;2023-04-12T03:15:15;9.07;;;7.30;;
14776;SDS011;7480;43.124;25.686;2023-04-12T03:17:43;10.77;;;8.23;;
14776;SDS011;7480;43.124;25.686;2023-04-12T03:20:10;8.87;;;7.17;;
14776;SDS011;7480;43.124;25.686;2023-04-12T03:22:37;9.33;;;7.03;;
14776;SDS011;7480;43.124;25.686;2023-04-12T03:25:04;8.67;;;7.13;;
14776;SDS011;7480;43.124;25.686;2023-04-12T03:27:31;8.60;;;7.43;;
14776;SDS011;7480;43.124;25.686;2023-04-12T03:29:57;10.00;;;7.30;;
14776;SDS011;7480;43.124;25.686;2023-04-12T03:32:24;9.43;;;6.83;;
14776;SDS011;7480;43.124;25.686;2023-04-12T03:34:51;9.23;;;8.17;;
14776;SDS011;7480;43.124;25.686;2023-04-12T03:37:17;8.97;;;7.43;;
14776;SDS011;7480;43.124;25.686;2023-04-12T03:39:44;9.23;;;8.00;;
14776;SDS011;7480;43.124;25.686;2023-04-12T03:42:14;8.77;;;7.27;;
14776;SDS011;7480;43.124;25.686;2023-04-12T03:44:57;8.13;;;7.20;;
14776;SDS011;7480;43.124;25.686;2023-04-12T03:47:23;9.20;;;7.60;;
14776;SDS011;7480;43.124;25.686;2023-04-12T03:49:50;10.30;;;7.40;;
14776;SDS011;7480;43.124;25.686;2023-04-12T03:52:37;9.40;;;7.47;;
14776;SDS011;7480;43.124;25.686;2023-04-12T03:55:04;10.03;;;8.10;;
14776;SDS011;7480;43.124;25.686;2023-04-12T03:57:33;9.03;;;7.30;;
14776;SDS011;7480;43.124;25.686;2023-04-12T04:00:00;9.33;;;7.43;;
14776;SDS011;7480;43.124;25.686;2023-04-12T04:02:26;8.93;;;7.70;;
14776;SDS011;7480;43.124;25.686;2023-04-12T04:04:53;9.60;;;6.97;;
14776;SDS011;7480;43.124;25.686;2023-04-12T04:07:21;8.57;;;7.40;;
14776;SDS011;7480;43.124;25.686;2023-04-12T04:09:47;8.80;;;7.47;;
14776;SDS011;7480;43.124;25.686;2023-04-12T04:12:15;9.50;;;7.97;;
14776;SDS011;7480;43.124;25.686;2023-04-12T04:14:42;13.03;;;8.63;;
14776;SDS011;7480;43.124;25.686;2023-04-12T04:17:09;11.33;;;9.20;;
14776;SDS011;7480;43.124;25.686;2023-04-12T04:19:36;12.53;;;9.40;;
14776;SDS011;7480;43.124;25.686;2023-04-12T04:22:03;9.43;;;7.90;;
14776;SDS011;7480;43.124;25.686;2023-04-12T04:24:30;12.97;;;9.40;;
14776;SDS011;7480;43.124;25.686;2023-04-12T04:26:56;15.33;;;8.43;;
14776;SDS011;7480;43.124;25.686;2023-04-12T04:29:24;10.70;;;7.97;;
14776;SDS011;7480;43.124;25.686;2023-04-12T04:31:51;9.97;;;7.57;;
14776;SDS011;7480;43.124;25.686;2023-04-12T04:34:19;9.07;;;7.83;;
14776;SDS011;7480;43.124;25.686;2023-04-12T04:36:47;7.80;;;7.00;;
14776;SDS011;7480;43.124;25.686;2023-04-12T04:39:14;9.50;;;8.00;;
14776;SDS011;7480;43.124;25.686;2023-04-12T04:41:41;8.87;;;6.83;;
14776;SDS011;7480;43.124;25.686;2023-04-12T04:44:07;8.07;;;7.10;;
14776;SDS011;7480;43.124;25.686;2023-04-12T04:46:35;8.90;;;7.17;;
14776;SDS011;7480;43.124;25.686;2023-04-12T04:49:03;8.97;;;6.83;;
14776;SDS011;7480;43.124;25.686;2023-04-12T04:51:30;9.30;;;6.57;;
14776;SDS011;7480;43.124;25.686;2023-04-12T04:53:57;11.20;;;7.60;;
14776;SDS011;7480;43.124;25.686;2023-04-12T04:56:24;8.90;;;6.60;;
14776;SDS011;7480;43.124;25.686;2023-04-12T04:58:51;10.17;;;7.90;;
14776;SDS011;7480;43.124;25.686;2023-04-12T05:01:21;8.43;;;6.67;;
14776;SDS011;7480;43.124;25.686;2023-04-12T05:03:54;8.53;;;6.70;;
14776;SDS011;7480;43.124;25.686;2023-04-12T05:06:21;9.30;;;7.17;;
14776;SDS011;7480;43.124;25.686;2023-04-12T05:08:48;12.97;;;10.00;;
14776;SDS011;7480;43.124;25.686;2023-04-12T05:11:15;9.27;;;7.53;;
14776;SDS011;7480;43.124;25.686;2023-04-12T05:13:46;10.47;;;6.50;;
14776;SDS011;7480;43.124;25.686;2023-04-12T05:16:13;8.03;;;7.10;;
14776;SDS011;7480;43.124;25.686;2023-04-12T05:18:40;9.33;;;6.83;;
14776;SDS011;7480;43.124;25.686;2023-04-12T05:21:06;7.23;;;6.53;;
14776;SDS011;7480;43.124;25.686;2023-04-12T05:23:39;8.93;;;6.97;;
14776;SDS011;7480;43.124;25.686;2023-04-12T05:26:08;9.25;;;8.35;;
14776;SDS011;7480;43.124;25.686;2023-04-12T05:28:34;10.83;;;8.03;;
14776;SDS011;7480;43.124;25.686;2023-04-12T05:31:01;9.03;;;7.40;;
14776;SDS011;7480;43.124;25.686;2023-04-12T05:33:28;8.27;;;6.80;;
14776;SDS011;7480;43.124;25.686;2023-04-12T05:35:58;9.67;;;8.27;;
14776;SDS011;7480;43.124;25.686;2023-04-12T05:38:24;9.07;;;7.10;;
14776;SDS011;7480;43.124;25.686;2023-04-12T05:40:51;10.98;;;9.13;;
14776;SDS011;7480;43.124;25.686;2023-04-12T05:43:18;9.97;;;8.47;;
14776;SDS011;7480;43.124;25.686;2023-04-12T05:45:44;9.70;;;8.03;;
14776;SDS011;7480;43.124;25.686;2023-04-12T05:48:11;9.47;;;8.47;;
14776;SDS011;7480;43.124;25.686;2023-04-12T05:50:39;11.40;;;8.73;;
14776;SDS011;7480;43.124;25.686;2023-04-12T05:53:05;11.43;;;8.67;;
14776;SDS011;7480;43.124;25.686;2023-04-12T05:55:32;9.43;;;8.27;;
14776;SDS011;7480;43.124;25.686;2023-04-12T05:58:01;9.57;;;7.50;;
14776;SDS011;7480;43.124;25.686;2023-04-12T06:00:28;10.03;;;8.60;;
14776;SDS011;7480;43.124;25.686;2023-04-12T06:02:55;9.47;;;8.33;;
14776;SDS011;7480;43.124;25.686;2023-04-12T06:05:23;10.17;;;8.67;;
14776;SDS011;7480;43.124;25.686;2023-04-12T06:07:50;11.90;;;8.30;;
14776;SDS011;7480;43.124;25.686;2023-04-12T06:10:17;11.00;;;8.97;;
14776;SDS011;7480;43.124;25.686;2023-04-12T06:12:44;9.67;;;8.37;;
14776;SDS011;7480;43.124;25.686;2023-04-12T06:15:10;12.43;;;8.17;;
14776;SDS011;7480;43.124;25.686;2023-04-12T06:17:37;10.57;;;8.60;;
14776;SDS011;7480;43.124;25.686;2023-04-12T06:20:04;10.97;;;9.07;;
14776;SDS011;7480;43.124;25.686;2023-04-12T06:22:34;11.43;;;8.97;;
14776;SDS011;7480;43.124;25.686;2023-04-12T06:25:02;10.23;;;9.10;;
14776;SDS011;7480;43.124;25.686;2023-04-12T06:27:29;11.90;;;8.80;;
14776;SDS011;7480;43.124;25.686;2023-04-12T06:29:56;12.37;;;9.53;;
14776;SDS011;7480;43.124;25.686;2023-04-12T06:32:23;12.30;;;9.70;;
14776;SDS011;7480;43.124;25.686;2023-04-12T06:34:50;10.13;;;8.47;;
14776;SDS011;7480;43.124;25.686;2023-04-12T06:37:17;9.50;;;7.70;;
14776;SDS011;7480;43.124;25.686;2023-04-12T06:39:43;9.17;;;7.70;;
14776;SDS011;7480;43.124;25.686;2023-04-12T06:42:10;11.27;;;8.93;;
14776;SDS011;7480;43.124;25.686;2023-04-12T06:44:39;10.43;;;9.30;;
14776;SDS011;7480;43.124;25.686;2023-04-12T06:47:06;12.40;;;9.73;;
14776;SDS011;7480;43.124;25.686;2023-04-12T06:49:33;10.67;;;8.83;;
14776;SDS011;7480;43.124;25.686;2023-04-12T06:52:00;11.77;;;9.50;;
14776;SDS011;7480;43.124;25.686;2023-04-12T06:54:27;9.90;;;8.90;;
14776;SDS011;7480;43.124;25.686;2023-04-12T06:56:53;9.37;;;7.47;;
14776;SDS011;7480;43.124;25.686;2023-04-12T06:59:22;9.43;;;8.50;;
14776;SDS011;7480;43.124;25.686;2023-04-12T07:01:49;8.77;;;7.87;;
14776;SDS011;7480;43.124;25.686;2023-04-12T07:04:15;9.83;;;7.20;;
14776;SDS011;7480;43.124;25.686;2023-04-12T07:06:42;9.90;;;8.90;;
14776;SDS011;7480;43.124;25.686;2023-04-12T07:09:09;10.37;;;9.20;;
14776;SDS011;7480;43.124;25.686;2023-04-12T07:11:36;12.43;;;9.23;;
14776;SDS011;7480;43.124;25.686;2023-04-12T07:14:02;13.13;;;8.83;;
14776;SDS011;7480;43.124;25.686;2023-04-12T07:16:29;9.67;;;8.43;;
14776;SDS011;7480;43.124;25.686;2023-04-12T07:18:58;9.87;;;8.57;;
14776;SDS011;7480;43.124;25.686;2023-04-12T07:21:25;10.53;;;8.73;;
14776;SDS011;7480;43.124;25.686;2023-04-12T07:23:53;10.17;;;8.53;;
14776;SDS011;7480;43.124;25.686;2023-04-12T07:26:21;10.67;;;8.07;;
14776;SDS011;7480;43.124;25.686;2023-04-12T07:28:47;9.10;;;7.37;;
14776;SDS011;7480;43.124;25.686;2023-04-12T07:31:14;9.00;;;7.57;;
14776;SDS011;7480;43.124;25.686;2023-04-12T07:33:41;9.67;;;8.03;;
14776;SDS011;7480;43.124;25.686;2023-04-12T07:36:08;9.90;;;7.63;;
14776;SDS011;7480;43.124;25.686;2023-04-12T07:38:35;10.60;;;8.00;;
14776;SDS011;7480;43.124;25.686;2023-04-12T07:41:02;12.53;;;8.80;;
14776;SDS011;7480;43.124;25.686;2023-04-12T07:43:29;7.71;;;6.63;;
14776;SDS011;7480;43.124;25.686;2023-04-12T07:45:57;10.43;;;7.67;;
14776;SDS011;7480;43.124;25.686;2023-04-12T07:48:24;7.90;;;6.67;;
14776;SDS011;7480;43.124;25.686;2023-04-12T07:50:50;9.70;;;7.20;;
14776;SDS011;7480;43.124;25.686;2023-04-12T07:53:21;9.17;;;6.60;;
14776;SDS011;7480;43.124;25.686;2023-04-12T07:55:49;7.10;;;6.20;;
14776;SDS011;7480;43.124;25.686;2023-04-12T07:58:16;7.10;;;6.40;;
14776;SDS011;7480;43.124;25.686;2023-04-12T08:00:44;8.63;;;6.13;;
14776;SDS011;7480;43.124;25.686;2023-04-12T08:03:12;7.00;;;5.90;;
14776;SDS011;7480;43.124;25.686;2023-04-12T08:05:40;5.93;;;5.10;;
14776;SDS011;7480;43.124;25.686;2023-04-12T08:08:07;9.23;;;5.80;;
14776;SDS011;7480;43.124;25.686;2023-04-12T08:10:37;7.93;;;5.77;;
14776;SDS011;7480;43.124;25.686;2023-04-12T08:13:05;8.63;;;5.50;;
14776;SDS011;7480;43.124;25.686;2023-04-12T08:15:31;6.87;;;5.60;;
14776;SDS011;7480;43.124;25.686;2023-04-12T08:17:58;6.50;;;4.53;;
14776;SDS011;7480;43.124;25.686;2023-04-12T08:20:26;4.97;;;3.90;;
14776;SDS011;7480;43.124;25.686;2023-04-12T08:22:53;6.10;;;4.80;;
14776;SDS011;7480;43.124;25.686;2023-04-12T08:25:20;4.93;;;4.27;;
14776;SDS011;7480;43.124;25.686;2023-04-12T08:27:47;4.90;;;4.27;;
14776;SDS011;7480;43.124;25.686;2023-04-12T08:30:15;5.20;;;3.50;;
14776;SDS011;7480;43.124;25.686;2023-04-12T08:32:42;6.60;;;4.10;;
14776;SDS011;7480;43.124;25.686;2023-04-12T08:35:09;4.53;;;3.77;;
14776;SDS011;7480;43.124;25.686;2023-04-12T08:37:36;6.93;;;4.20;;
14776;SDS011;7480;43.124;25.686;2023-04-12T08:40:04;6.30;;;5.10;;
14776;SDS011;7480;43.124;25.686;2023-04-12T08:42:35;3.73;;;3.07;;
14776;SDS011;7480;43.124;25.686;2023-04-12T08:45:03;4.13;;;3.60;;
14776;SDS011;7480;43.124;25.686;2023-04-12T08:47:31;5.57;;;3.50;;
14776;SDS011;7480;43.124;25.686;2023-04-12T08:50:00;6.63;;;3.67;;
14776;SDS011;7480;43.124;25.686;2023-04-12T08:52:27;4.93;;;3.27;;
14776;SDS011;7480;43.124;25.686;2023-04-12T08:54:55;6.27;;;3.47;;
14776;SDS011;7480;43.124;25.686;2023-04-12T08:57:21;5.30;;;4.07;;
14776;SDS011;7480;43.124;25.686;2023-04-12T08:59:48;6.50;;;2.67;;
14776;SDS011;7480;43.124;25.686;2023-04-12T09:02:16;6.50;;;3.20;;
14776;SDS011;7480;43.124;25.686;2023-04-12T09:04:49;5.00;;;3.30;;
14776;SDS011;7480;43.124;25.686;2023-04-12T09:07:21;4.13;;;3.43;;
14776;SDS011;7480;43.124;25.686;2023-04-12T09:09:48;6.20;;;3.33;;
14776;SDS011;7480;43.124;25.686;2023-04-12T09:12:16;3.73;;;2.90;;
14776;SDS011;7480;43.124;25.686;2023-04-12T09:14:45;4.87;;;2.83;;
14776;SDS011;7480;43.124;25.686;2023-04-12T09:17:22;5.10;;;3.23;;
14776;SDS011;7480;43.124;25.686;2023-04-12T09:19:49;4.80;;;3.13;;
14776;SDS011;7480;43.124;25.686;2023-04-12T09:22:16;5.93;;;3.07;;
14776;SDS011;7480;43.124;25.686;2023-04-12T09:24:47;10.43;;;3.77;;
14776;SDS011;7480;43.124;25.686;2023-04-12T09:27:16;5.77;;;2.77;;
14776;SDS011;7480;43.124;25.686;2023-04-12T09:29:46;9.87;;;3.13;;
14776;SDS011;7480;43.124;25.686;2023-04-12T09:32:23;6.57;;;2.90;;
14776;SDS011;7480;43.124;25.686;2023-04-12T09:34:57;3.43;;;2.80;;
14776;SDS011;7480;43.124;25.686;2023-04-12T09:37:26;3.90;;;2.63;;
14776;SDS011;7480;43.124;25.686;2023-04-12T09:40:03;3.00;;;2.27;;
14776;SDS011;7480;43.124;25.686;2023-04-12T09:42:32;2.70;;;2.43;;
14776;SDS011;7480;43.124;25.686;2023-04-12T09:45:01;2.50;;;2.30;;
14776;SDS011;7480;43.124;25.686;2023-04-12T09:47:47;3.10;;;2.60;;
14776;SDS011;7480;43.124;25.686;2023-04-12T09:50:21;2.13;;;1.93;;
14776;SDS011;7480;43.124;25.686;2023-04-12T09:52:54;2.77;;;2.20;;
14776;SDS011;7480;43.124;25.686;2023-04-12T09:55:22;6.77;;;2.73;;
14776;SDS011;7480;43.124;25.686;2023-04-12T09:57:51;3.43;;;2.10;;
14776;SDS011;7480;43.124;25.686;2023-04-12T10:00:20;4.33;;;2.63;;
14776;SDS011;7480;43.124;25.686;2023-04-12T10:02:49;2.43;;;2.23;;
14776;SDS011;7480;43.124;25.686;2023-04-12T10:05:18;4.13;;;2.40;;
14776;SDS011;7480;43.124;25.686;2023-04-12T10:07:47;3.07;;;2.20;;
14776;SDS011;7480;43.124;25.686;2023-04-12T10:10:16;2.87;;;2.50;;
14776;SDS011;7480;43.124;25.686;2023-04-12T10:12:44;5.40;;;2.60;;
14776;SDS011;7480;43.124;25.686;2023-04-12T10:15:12;2.60;;;2.40;;
14776;SDS011;7480;43.124;25.686;2023-04-12T10:17:44;5.07;;;2.80;;
14776;SDS011;7480;43.124;25.686;2023-04-12T10:20:12;3.70;;;2.47;;
14776;SDS011;7480;43.124;25.686;2023-04-12T10:22:41;2.90;;;2.60;;
14776;SDS011;7480;43.124;25.686;2023-04-12T10:25:13;5.00;;;2.60;;
14776;SDS011;7480;43.124;25.686;2023-04-12T10:27:43;5.10;;;2.60;;
14776;SDS011;7480;43.124;25.686;2023-04-12T10:30:29;2.77;;;2.33;;
14776;SDS011;7480;43.124;25.686;2023-04-12T10:35:49;3.03;;;2.70;;
14776;SDS011;7480;43.124;25.686;2023-04-12T10:38:21;3.07;;;2.30;;
14776;SDS011;7480;43.124;25.686;2023-04-12T10:43:35;3.97;;;2.97;;
14776;SDS011;7480;43.124;25.686;2023-04-12T10:46:03;6.70;;;2.37;;
14776;SDS011;7480;43.124;25.686;2023-04-12T10:48:35;2.33;;;2.10;;
14776;SDS011;7480;43.124;25.686;2023-04-12T10:51:15;2.77;;;2.50;;
14776;SDS011;7480;43.124;25.686;2023-04-12T10:56:34;2.93;;;2.17;;
14776;SDS011;7480;43.124;25.686;2023-04-12T10:59:05;5.40;;;2.53;;
14776;SDS011;7480;43.124;25.686;2023-04-12T11:01:32;3.30;;;2.43;;
14776;SDS011;7480;43.124;25.686;2023-04-12T11:09:06;3.97;;;2.70;;
14776;SDS011;7480;43.124;25.686;2023-04-12T11:11:42;3.37;;;2.40;;
14776;SDS011;7480;43.124;25.686;2023-04-12T11:14:09;2.97;;;2.40;;
14776;SDS011;7480;43.124;25.686;2023-04-12T11:19:31;2.47;;;2.27;;
14776;SDS011;7480;43.124;25.686;2023-04-12T11:22:02;4.00;;;2.50;;
14776;SDS011;7480;43.124;25.686;2023-04-12T11:24:29;5.50;;;3.87;;
14776;SDS011;7480;43.124;25.686;2023-04-12T11:26:57;2.13;;;2.00;;
14776;SDS011;7480;43.124;25.686;2023-04-12T11:29:25;2.10;;;1.90;;
14776;SDS011;7480;43.124;25.686;2023-04-12T11:31:52;2.83;;;2.50;;
14776;SDS011;7480;43.124;25.686;2023-04-12T11:34:21;10.37;;;1.90;;
14776;SDS011;7480;43.124;25.686;2023-04-12T11:36:51;4.83;;;2.07;;
14776;SDS011;7480;43.124;25.686;2023-04-12T11:39:19;3.90;;;2.00;;
14776;SDS011;7480;43.124;25.686;2023-04-12T11:41:47;3.37;;;1.83;;
14776;SDS011;7480;43.124;25.686;2023-04-12T11:44:14;3.20;;;1.73;;
14776;SDS011;7480;43.124;25.686;2023-04-12T11:46:44;3.80;;;1.60;;
14776;SDS011;7480;43.124;25.686;2023-04-12T11:49:15;5.27;;;2.13;;
14776;SDS011;7480;43.124;25.686;2023-04-12T11:51:45;1.93;;;1.67;;
14776;SDS011;7480;43.124;25.686;2023-04-12T11:54:15;2.23;;;1.63;;
14776;SDS011;7480;43.124;25.686;2023-04-12T11:56:41;4.03;;;2.00;;
14776;SDS011;7480;43.124;25.686;2023-04-12T11:59:08;2.23;;;1.90;;
14776;SDS011;7480;43.124;25.686;2023-04-12T12:01:35;3.47;;;2.30;;
14776;SDS011;7480;43.124;25.686;2023-04-12T12:04:03;2.73;;;2.10;;
14776;SDS011;7480;43.124;25.686;2023-04-12T12:06:31;3.70;;;2.53;;
14776;SDS011;7480;43.124;25.686;2023-04-12T12:08:58;3.50;;;2.10;;
14776;SDS011;7480;43.124;25.686;2023-04-12T12:11:24;3.53;;;2.03;;
14776;SDS011;7480;43.124;25.686;2023-04-12T12:13:53;2.53;;;1.90;;
14776;SDS011;7480;43.124;25.686;2023-04-12T12:16:24;3.13;;;1.73;;
14776;SDS011;7480;43.124;25.686;2023-04-12T12:18:53;3.43;;;1.90;;
14776;SDS011;7480;43.124;25.686;2023-04-12T12:21:20;4.40;;;2.87;;
14776;SDS011;7480;43.124;25.686;2023-04-12T12:23:47;2.60;;;2.03;;
14776;SDS011;7480;43.124;25.686;2023-04-12T12:26:24;2.23;;;2.00;;
14776;SDS011;7480;43.124;25.686;2023-04-12T12:28:53;2.93;;;1.90;;
14776;SDS011;7480;43.124;25.686;2023-04-12T12:31:22;2.43;;;1.63;;
14776;SDS011;7480;43.124;25.686;2023-04-12T12:33:55;5.83;;;1.90;;
14776;SDS011;7480;43.124;25.686;2023-04-12T12:36:29;2.10;;;1.90;;
14776;SDS011;7480;43.124;25.686;2023-04-12T12:39:02;4.77;;;1.80;;
14776;SDS011;7480;43.124;25.686;2023-04-12T12:41:36;2.87;;;2.10;;
14776;SDS011;7480;43.124;25.686;2023-04-12T12:44:04;2.90;;;2.20;;
14776;SDS011;7480;43.124;25.686;2023-04-12T12:46:30;2.53;;;2.00;;
14776;SDS011;7480;43.124;25.686;2023-04-12T12:49:17;4.13;;;2.20;;
14776;SDS011;7480;43.124;25.686;2023-04-12T12:51:44;2.30;;;2.10;;
14776;SDS011;7480;43.124;25.686;2023-04-12T12:54:10;2.83;;;1.80;;
14776;SDS011;7480;43.124;25.686;2023-04-12T12:56:37;4.47;;;2.10;;
14776;SDS011;7480;43.124;25.686;2023-04-12T12:59:04;3.60;;;2.13;;
14776;SDS011;7480;43.124;25.686;2023-04-12T13:01:30;7.57;;;3.00;;
14776;SDS011;7480;43.124;25.686;2023-04-12T13:03:58;9.50;;;2.90;;
14776;SDS011;7480;43.124;25.686;2023-04-12T13:06:25;2.80;;;2.60;;
14776;SDS011;7480;43.124;25.686;2023-04-12T13:08:53;3.93;;;2.20;;
14776;SDS011;7480;43.124;25.686;2023-04-12T13:11:21;6.87;;;2.67;;
14776;SDS011;7480;43.124;25.686;2023-04-12T13:13:47;5.23;;;2.33;;
14776;SDS011;7480;43.124;25.686;2023-04-12T13:16:14;2.53;;;2.33;;
14776;SDS011;7480;43.124;25.686;2023-04-12T13:18:41;6.43;;;2.77;;
14776;SDS011;7480;43.124;25.686;2023-04-12T13:21:08;5.70;;;2.30;;
14776;SDS011;7480;43.124;25.686;2023-04-12T13:23:34;4.80;;;2.63;;
14776;SDS011;7480;43.124;25.686;2023-04-12T13:26:01;4.83;;;2.57;;
14776;SDS011;7480;43.124;25.686;2023-04-12T13:28:28;3.50;;;2.20;;
14776;SDS011;7480;43.124;25.686;2023-04-12T13:30:55;2.77;;;2.40;;
14776;SDS011;7480;43.124;25.686;2023-04-12T13:33:22;2.23;;;2.00;;
14776;SDS011;7480;43.124;25.686;2023-04-12T13:35:49;5.37;;;2.70;;
14776;SDS011;7480;43.124;25.686;2023-04-12T13:38:16;7.60;;;3.07;;
14776;SDS011;7480;43.124;25.686;2023-04-12T13:40:43;3.30;;;2.60;;
14776;SDS011;7480;43.124;25.686;2023-04-12T13:43:09;3.20;;;2.33;;
14776;SDS011;7480;43.124;25.686;2023-04-12T13:45:36;3.60;;;2.30;;
14776;SDS011;7480;43.124;25.686;2023-04-12T13:48:03;2.27;;;2.07;;
14776;SDS011;7480;43.124;25.686;2023-04-12T13:50:30;4.07;;;2.47;;
14776;SDS011;7480;43.124;25.686;2023-04-12T13:52:56;4.03;;;2.50;;
14776;SDS011;7480;43.124;25.686;2023-04-12T13:55:23;4.33;;;2.13;;
14776;SDS011;7480;43.124;25.686;2023-04-12T13:57:50;6.27;;;2.67;;
14776;SDS011;7480;43.124;25.686;2023-04-12T14:00:16;5.63;;;2.53;;
14776;SDS011;7480;43.124;25.686;2023-04-12T14:02:43;3.90;;;2.90;;
14776;SDS011;7480;43.124;25.686;2023-04-12T14:05:10;7.77;;;4.13;;
14776;SDS011;7480;43.124;25.686;2023-04-12T14:07:37;4.47;;;2.90;;
14776;SDS011;7480;43.124;25.686;2023-04-12T14:10:04;6.33;;;3.50;;
14776;SDS011;7480;43.124;25.686;2023-04-12T14:12:31;7.63;;;3.77;;
14776;SDS011;7480;43.124;25.686;2023-04-12T14:14:57;6.53;;;4.20;;
14776;SDS011;7480;43.124;25.686;2023-04-12T14:17:24;7.00;;;3.00;;
14776;SDS011;7480;43.124;25.686;2023-04-12T14:19:51;6.60;;;2.90;;
14776;SDS011;7480;43.124;25.686;2023-04-12T14:22:18;5.43;;;2.60;;
14776;SDS011;7480;43.124;25.686;2023-04-12T14:24:44;4.53;;;2.77;;
14776;SDS011;7480;43.124;25.686;2023-04-12T14:27:11;7.80;;;3.57;;
14776;SDS011;7480;43.124;25.686;2023-04-12T14:29:38;10.47;;;3.30;;
14776;SDS011;7480;43.124;25.686;2023-04-12T14:32:05;5.77;;;2.70;;
14776;SDS011;7480;43.124;25.686;2023-04-12T14:34:31;5.30;;;2.73;;
14776;SDS011;7480;43.124;25.686;2023-04-12T14:36:59;8.17;;;3.33;;
14776;SDS011;7480;43.124;25.686;2023-04-12T14:39:25;4.40;;;3.20;;
14776;SDS011;7480;43.124;25.686;2023-04-12T14:41:53;6.17;;;3.90;;
14776;SDS011;7480;43.124;25.686;2023-04-12T14:44:19;4.13;;;3.73;;
14776;SDS011;7480;43.124;25.686;2023-04-12T14:46:49;6.70;;;4.37;;
14776;SDS011;7480;43.124;25.686;2023-04-12T14:49:16;4.00;;;3.60;;
14776;SDS011;7480;43.124;25.686;2023-04-12T14:51:43;6.00;;;3.70;;
14776;SDS011;7480;43.124;25.686;2023-04-12T14:54:10;7.13;;;4.70;;
14776;SDS011;7480;43.124;25.686;2023-04-12T14:56:37;5.43;;;3.83;;
14776;SDS011;7480;43.124;25.686;2023-04-12T14:59:12;5.87;;;3.67;;
14776;SDS011;7480;43.124;25.686;2023-04-12T15:01:40;5.00;;;3.53;;
14776;SDS011;7480;43.124;25.686;2023-04-12T15:04:06;4.60;;;3.40;;
14776;SDS011;7480;43.124;25.686;2023-04-12T15:06:34;5.07;;;3.57;;
14776;SDS011;7480;43.124;25.686;2023-04-12T15:09:07;4.63;;;2.60;;
14776;SDS011;7480;43.124;25.686;2023-04-12T15:11:35;4.20;;;2.33;;
14776;SDS011;7480;43.124;25.686;2023-04-12T15:14:03;3.33;;;2.53;;